createdAt,value
2017-08-29T07:08:52.001Z,17.9
2017-08-29T07:19:38.841Z,17.9
2017-08-29T07:29:54.818Z,17.8
2017-08-29T07:40:11.147Z,18.1
2017-08-29T07:50:27.504Z,19.2
2017-08-29T08:00:43.582Z,21.2
2017-08-29T08:10:59.696Z,23.2
2017-08-29T08:21:15.814Z,25.1
2017-08-29T08:31:32.264Z,27.0
2017-08-29T08:41:48.297Z,28.8
2017-08-29T08:52:04.397Z,30.3
2017-08-29T09:02:20.733Z,31.9
2017-08-29T09:12:37.197Z,33.2
2017-08-29T09:22:53.039Z,34.5
2017-08-29T09:33:09.386Z,35.7
2017-08-29T09:43:25.792Z,36.7
2017-08-29T09:53:41.765Z,37.8
2017-08-29T10:03:58.035Z,38.6
2017-08-29T10:14:14.367Z,39.4
2017-08-29T10:24:30.816Z,40.2
2017-08-29T10:34:46.739Z,40.7
2017-08-29T10:45:02.827Z,41.3
2017-08-29T10:55:19.355Z,41.8
2017-08-29T11:05:35.392Z,42.2
2017-08-29T11:15:51.587Z,42.6
2017-08-29T11:26:08.022Z,42.9
2017-08-29T11:36:24.136Z,43.2
2017-08-29T11:46:40.252Z,43.4
2017-08-29T11:56:56.791Z,43.5
2017-08-29T12:07:12.935Z,43.5
2017-08-29T12:17:29.355Z,43.4
2017-08-29T12:27:45.465Z,43.1
2017-08-29T12:38:01.439Z,42.7
2017-08-29T12:48:48.375Z,41.9
2017-08-29T12:59:04.667Z,41.8
2017-08-29T13:09:20.693Z,41.6
2017-08-29T13:19:37.081Z,41.5
2017-08-29T13:29:53.168Z,41.3
2017-08-29T13:40:09.223Z,41.2
2017-08-29T13:50:25.720Z,41.1
2017-08-29T14:00:41.731Z,41.1
2017-08-29T14:10:58.067Z,40.9
2017-08-29T14:21:14.040Z,40.8
2017-08-29T14:31:30.107Z,40.7
2017-08-29T14:42:17.876Z,40.4
2017-08-29T14:52:35.538Z,40.4
2017-08-29T15:03:21.531Z,40.0
2017-08-29T15:13:37.766Z,39.9
2017-08-29T15:24:40.621Z,39.2
2017-08-29T15:35:01.780Z,39.2
2017-08-29T15:45:31.320Z,38.5
2017-08-29T15:55:52.159Z,37.8
2017-08-29T16:06:12.991Z,37.0
2017-08-29T16:16:31.132Z,36.2
2017-08-29T16:26:47.051Z,35.5
2017-08-29T16:37:03.375Z,35.0
2017-08-29T16:47:17.490Z,34.4
2017-08-29T16:57:33.968Z,33.8
2017-08-29T17:07:49.926Z,33.3
2017-08-29T17:18:06.331Z,32.8
2017-08-29T17:29:24.895Z,32.2
2017-08-29T17:39:41.017Z,31.7
2017-08-29T17:55:18.511Z,30.8
2017-08-29T18:05:34.681Z,30.8
2017-08-29T18:15:50.922Z,30.3
2017-08-29T18:26:04.410Z,29.8
2017-08-29T18:36:20.469Z,29.2
2017-08-29T18:46:36.816Z,28.7
2017-08-29T18:56:53.237Z,28.1
2017-08-29T19:07:13.541Z,27.6
2017-08-29T19:18:00.276Z,26.7
2017-08-29T19:28:16.231Z,26.6
2017-08-29T19:38:32.527Z,26.2
2017-08-29T19:48:48.885Z,25.8
2017-08-29T19:59:05.126Z,25.4
2017-08-29T20:09:21.065Z,25.1
2017-08-29T20:20:07.864Z,24.4
2017-08-29T20:30:24.286Z,24.4
2017-08-29T20:40:40.509Z,24.1
2017-08-29T20:50:56.890Z,23.8
2017-08-29T21:01:12.917Z,23.5
2017-08-29T21:11:28.902Z,23.2
2017-08-29T21:21:45.113Z,22.9
2017-08-29T21:32:00.664Z,22.7
2017-08-29T21:42:16.961Z,22.5
2017-08-29T21:52:32.747Z,22.3
2017-08-29T22:02:48.997Z,22.1
2017-08-29T22:13:05.210Z,21.9
2017-08-29T22:23:20.515Z,21.7
2017-08-29T22:33:37.034Z,21.6
2017-08-29T22:43:53.468Z,21.4
2017-08-29T22:54:09.312Z,21.2
2017-08-29T23:04:25.345Z,21.1
2017-08-29T23:14:41.977Z,20.9
2017-08-29T23:24:57.850Z,20.8
2017-08-29T23:35:44.788Z,20.5
2017-08-29T23:46:00.770Z,20.5
2017-08-29T23:56:17.024Z,20.4
